Time;durP1;ratioP1;P1;durP2;ratioP2;P2;SDS_P1;SDS_P2;PMS_P1;PMS_P2;Temp;Humidity;BMP_temperature;BMP_pressure;BME280_temperature;BME280_humidity;BME280_pressure;Samples;Min_cycle;Max_cycle;Signal;HPM_P1;HPM_P2
2022/08/19 00:00:19;;;;;;;7.07;5.18;;;;;;;18.47;96.78;92978.25;5050002;28;20049;-83
2022/08/19 00:02:46;;;;;;;7.03;4.40;;;;;;;18.50;96.22;92975.13;5049909;28;20103;-83
2022/08/19 00:05:15;;;;;;;5.70;4.55;;;;;;;18.37;96.17;92960.88;5049675;28;20090;-82
2022/08/19 00:07:43;;;;;;;5.60;4.75;;;;;;;18.39;96.46;92975.16;5049646;28;20412;-82
2022/08/19 00:10:12;;;;;;;5.38;4.35;;;;;;;18.23;95.75;92950.25;5049645;28;20053;-82
2022/08/19 00:12:41;;;;;;;5.75;4.75;;;;;;;18.16;96.48;92955.72;5049959;28;20439;-82
2022/08/19 00:15:11;;;;;;;6.30;4.88;;;;;;;18.11;97.11;92964.31;5050131;28;20064;-82
2022/08/19 00:17:38;;;;;;;6.70;4.53;;;;;;;18.22;97.31;92995.47;5049389;28;20059;-82
2022/08/19 00:20:06;;;;;;;6.63;5.22;;;;;;;18.17;97.75;93001.47;5044350;28;20049;-82
2022/08/19 00:22:33;;;;;;;6.82;5.10;;;;;;;17.99;99.37;92979.34;5031375;28;20068;-82
2022/08/19 00:27:48;;;;;;;6.95;4.90;;;;;;;18.12;98.92;92994.44;5013840;28;20413;-82
2022/08/19 00:30:15;;;;;;;5.75;4.93;;;;;;;18.10;98.00;92983.53;5040707;28;20056;-82
2022/08/19 00:32:42;;;;;;;5.72;4.93;;;;;;;18.25;98.61;92995.75;5048265;28;20051;-82
2022/08/19 00:35:12;;;;;;;6.93;4.70;;;;;;;18.01;98.27;92951.28;5047444;28;20083;-82
2022/08/19 00:37:43;;;;;;;6.53;4.80;;;;;;;18.13;98.27;92971.81;5049110;28;20049;-81
2022/08/19 00:40:13;;;;;;;6.45;5.03;;;;;;;18.24;97.73;92977.78;5049352;28;20052;-81
2022/08/19 00:42:40;;;;;;;7.22;4.60;;;;;;;18.20;97.73;92972.34;5036874;28;20071;-81
2022/08/19 00:45:13;;;;;;;6.88;5.03;;;;;;;18.24;96.75;92964.81;5045018;28;20045;-81
2022/08/19 00:47:43;;;;;;;5.72;4.70;;;;;;;18.04;96.52;92950.75;5040152;28;20053;-81
2022/08/19 00:50:11;;;;;;;6.13;5.13;;;;;;;18.28;96.83;92974.41;5021158;28;20095;-81
2022/08/19 00:52:45;;;;;;;5.47;4.25;;;;;;;18.24;96.29;92981.16;5028940;28;20042;-81
2022/08/19 00:55:15;;;;;;;6.40;4.82;;;;;;;18.04;97.48;92971.53;5028652;28;20459;-81
2022/08/19 00:57:48;;;;;;;5.65;4.70;;;;;;;17.96;99.03;92970.25;5031494;28;20416;-81
2022/08/19 01:00:20;;;;;;;5.03;4.35;;;;;;;17.96;98.49;92966.88;5028738;28;20056;-81
2022/08/19 01:02:47;;;;;;;5.88;4.57;;;;;;;18.00;99.07;92973.88;5028935;28;20075;-81
2022/08/19 01:05:28;;;;;;;7.30;5.00;;;;;;;17.98;98.77;92977.78;5028891;28;20501;-81
2022/08/19 01:07:57;;;;;;;5.65;4.82;;;;;;;17.92;99.25;92973.63;5028833;28;20104;-81
2022/08/19 01:10:27;;;;;;;6.78;5.13;;;;;;;17.87;99.32;92957.00;5028572;28;20061;-81
2022/08/19 01:12:56;;;;;;;5.97;4.97;;;;;;;17.89;99.43;92965.34;5029314;28;20053;-81
2022/08/19 01:15:29;;;;;;;6.22;5.22;;;;;;;17.83;99.30;92963.00;5029312;28;20120;-81
2022/08/19 01:17:58;;;;;;;5.75;5.10;;;;;;;17.80;99.11;92960.91;5043177;28;20053;-81
2022/08/19 01:20:25;;;;;;;8.20;5.25;;;;;;;17.74;99.39;92944.56;5048700;28;20041;-81
2022/08/19 01:22:56;;;;;;;6.40;5.35;;;;;;;17.84;100.00;92967.16;5048340;28;20497;-81
2022/08/19 01:25:29;;;;;;;8.45;5.40;;;;;;;17.63;100.00;92935.97;5048131;28;20057;-81
2022/08/19 01:27:57;;;;;;;6.57;5.85;;;;;;;17.81;100.00;92959.88;5045697;28;20052;-81
2022/08/19 01:30:26;;;;;;;6.57;5.18;;;;;;;17.83;100.00;92968.19;5048468;28;20415;-81
2022/08/19 01:32:56;;;;;;;6.32;5.30;;;;;;;17.67;100.00;92957.03;5046006;28;20140;-81
2022/08/19 01:35:26;;;;;;;6.13;4.90;;;;;;;17.76;100.00;92964.03;5048026;28;20045;-81
2022/08/19 01:37:57;;;;;;;6.40;5.05;;;;;;;17.75;100.00;92966.88;5048233;28;20409;-81
2022/08/19 01:40:28;;;;;;;7.45;5.90;;;;;;;17.67;100.00;92947.41;5048437;28;20090;-81
2022/08/19 01:42:56;;;;;;;6.82;5.50;;;;;;;17.61;100.00;92958.84;5048647;28;20127;-81
2022/08/19 01:45:27;;;;;;;8.35;5.65;;;;;;;17.31;100.00;92940.38;5047947;28;20033;-81
2022/08/19 01:47:54;;;;;;;7.55;5.90;;;;;;;17.28;100.00;92953.88;5048310;28;20484;-81
2022/08/19 01:50:21;;;;;;;6.55;5.85;;;;;;;17.46;100.00;92982.97;5047906;28;20041;-81
2022/08/19 01:52:48;;;;;;;7.75;5.38;;;;;;;17.48;100.00;92983.50;5048130;28;20091;-78
2022/08/19 01:55:19;;;;;;;8.73;6.47;;;;;;;17.36;100.00;92965.59;5048212;28;20045;-77
2022/08/19 01:57:51;;;;;;;6.05;5.45;;;;;;;17.47;100.00;92977.53;5049841;28;20110;-78
2022/08/19 02:00:20;;;;;;;6.30;5.03;;;;;;;17.45;100.00;92974.41;5051810;28;20086;-77
2022/08/19 02:02:47;;;;;;;6.75;5.80;;;;;;;17.34;100.00;92970.22;5051661;28;20049;-77
2022/08/19 02:05:18;;;;;;;8.13;5.30;;;;;;;17.17;100.00;92936.75;5051759;28;20048;-77
2022/08/19 02:07:45;;;;;;;7.15;5.90;;;;;;;17.36;100.00;92957.78;5051622;28;20144;-77
2022/08/19 02:10:15;;;;;;;8.02;6.18;;;;;;;17.26;100.00;92942.97;5051870;28;20485;-78
2022/08/19 02:12:43;;;;;;;7.07;5.47;;;;;;;17.32;100.00;92961.94;5051510;28;20065;-79
2022/08/19 02:15:10;;;;;;;8.02;6.07;;;;;;;17.31;100.00;92962.97;5051795;28;20053;-78
2022/08/19 02:17:37;;;;;;;7.72;5.68;;;;;;;17.33;100.00;92971.28;5051464;28;20045;-78
2022/08/19 02:20:05;;;;;;;7.25;5.68;;;;;;;17.29;100.00;92975.41;5051356;28;20045;-78
2022/08/19 02:22:33;;;;;;;9.43;5.43;;;;;;;17.18;100.00;92972.03;5051621;28;20123;-80
2022/08/19 02:24:59;;;;;;;6.95;5.93;;;;;;;17.16;100.00;92980.06;5051416;28;20041;-79
2022/08/19 02:27:26;;;;;;;6.70;5.60;;;;;;;17.13;100.00;92979.81;5051508;28;20448;-79
2022/08/19 02:29:54;;;;;;;7.85;6.25;;;;;;;17.07;100.00;92984.97;5051330;28;20455;-79
2022/08/19 02:32:21;;;;;;;6.72;5.93;;;;;;;17.07;100.00;92973.81;5050983;28;20048;-79
2022/08/19 02:34:49;;;;;;;8.65;6.10;;;;;;;17.06;100.00;92977.44;5051266;28;20103;-78
2022/08/19 02:39:58;;;;;;;9.10;5.88;;;;;;;16.89;100.00;92954.28;5050143;28;20519;-78
2022/08/19 02:42:25;;;;;;;6.82;6.13;;;;;;;16.89;100.00;92946.50;5051395;28;20045;-78
2022/08/19 02:44:56;;;;;;;7.75;6.13;;;;;;;17.00;100.00;92975.84;5050739;28;20094;-79
2022/08/19 02:47:23;;;;;;;8.15;5.70;;;;;;;16.83;100.00;92950.88;5050930;28;20048;-78
2022/08/19 02:49:50;;;;;;;7.80;6.22;;;;;;;16.92;100.00;92966.72;5050563;28;20040;-78
2022/08/19 02:52:17;;;;;;;6.28;5.55;;;;;;;16.85;100.00;92956.59;5050968;28;20059;-78
2022/08/19 02:54:44;;;;;;;8.50;6.68;;;;;;;16.91;100.00;92965.97;5048163;28;20053;-78
2022/08/19 02:57:11;;;;;;;7.60;6.47;;;;;;;16.92;100.00;92961.53;5050762;28;20132;-78
2022/08/19 02:59:37;;;;;;;7.85;6.03;;;;;;;16.92;100.00;92958.94;5051012;28;20045;-78
2022/08/19 03:02:06;;;;;;;7.90;5.72;;;;;;;16.90;100.00;92968.81;5050663;28;20103;-78
2022/08/19 03:04:32;;;;;;;9.77;6.50;;;;;;;16.93;100.00;92974.25;5050425;28;20493;-78
2022/08/19 03:06:59;;;;;;;9.52;6.35;;;;;;;16.95;100.00;92972.19;5050236;28;20048;-77
2022/08/19 03:09:26;;;;;;;7.10;6.30;;;;;;;16.91;100.00;92978.16;5050049;28;20053;-78
2022/08/19 03:11:53;;;;;;;7.32;6.30;;;;;;;16.76;100.00;92960.72;5050352;28;20045;-78
2022/08/19 03:14:20;;;;;;;6.47;5.63;;;;;;;16.61;100.00;92956.25;5050385;28;20045;-78
2022/08/19 03:16:49;;;;;;;8.88;6.43;;;;;;;16.57;100.00;92958.56;5050643;28;20037;-78
2022/08/19 03:19:20;;;;;;;7.20;5.25;;;;;;;16.39;100.00;92950.19;5050555;28;20049;-77
2022/08/19 03:21:48;;;;;;;7.70;6.45;;;;;;;16.52;100.00;92971.53;5050758;28;20451;-78
2022/08/19 03:24:17;;;;;;;7.63;5.88;;;;;;;16.51;100.00;92980.31;5050248;28;20552;-77
2022/08/19 03:26:45;;;;;;;7.15;6.07;;;;;;;16.48;100.00;92981.59;5050019;28;20041;-77
2022/08/19 03:29:13;;;;;;;10.48;7.18;;;;;;;16.47;100.00;92979.28;5050165;28;20092;-78
2022/08/19 03:31:42;;;;;;;9.05;6.80;;;;;;;16.38;100.00;92974.56;5050237;28;20045;-78
2022/08/19 03:34:11;;;;;;;8.13;6.18;;;;;;;16.39;100.00;92970.94;5050067;28;20045;-78
2022/08/19 03:36:39;;;;;;;7.43;6.00;;;;;;;16.43;100.00;92979.75;5050428;28;20041;-78
2022/08/19 03:39:08;;;;;;;9.98;6.38;;;;;;;16.42;100.00;92992.97;5049966;28;20496;-78
2022/08/19 03:41:39;;;;;;;7.38;6.13;;;;;;;16.41;100.00;92994.00;5049712;28;20095;-76
2022/08/19 03:44:08;;;;;;;7.40;6.38;;;;;;;16.28;100.00;92974.50;5050295;28;20052;-77
2022/08/19 03:46:37;;;;;;;8.73;6.82;;;;;;;16.38;100.00;92995.28;5049576;28;20568;-76
2022/08/19 03:49:07;;;;;;;10.15;8.10;;;;;;;16.41;100.00;92996.59;5049680;28;20052;-76
2022/08/19 03:51:36;;;;;;;10.77;6.40;;;;;;;16.41;100.00;92994.00;5038269;28;20500;-77
2022/08/19 03:54:07;;;;;;;11.23;7.20;;;;;;;16.40;100.00;93001.00;5048191;28;20211;-78
2022/08/19 03:56:36;;;;;;;7.85;6.25;;;;;;;16.45;100.00;92996.88;5047275;28;20049;-78
2022/08/19 03:59:04;;;;;;;10.15;6.90;;;;;;;16.35;100.00;92982.06;5044335;28;20115;-78
2022/08/19 04:01:31;;;;;;;9.00;6.80;;;;;;;16.42;100.00;93001.53;5049524;28;20500;-77
2022/08/19 04:04:00;;;;;;;9.18;7.22;;;;;;;16.36;100.00;93001.75;5044246;28;20103;-78
2022/08/19 04:06:29;;;;;;;9.38;7.47;;;;;;;16.55;100.00;93015.88;5047074;28;20107;-77
2022/08/19 04:08:58;;;;;;;9.38;7.07;;;;;;;16.50;100.00;92997.69;5049755;28;20059;-77
2022/08/19 04:11:28;;;;;;;10.50;7.38;;;;;;;16.55;100.00;92996.94;5049355;28;20045;-77
2022/08/19 04:13:57;;;;;;;9.10;6.95;;;;;;;16.70;100.00;93016.97;5047098;28;20049;-77
2022/08/19 04:16:28;;;;;;;9.45;6.63;;;;;;;16.69;100.00;93012.81;5048024;28;20041;-77
2022/08/19 04:18:56;;;;;;;10.45;8.30;;;;;;;16.73;100.00;93013.88;5032543;28;20053;-77
2022/08/19 04:21:26;;;;;;;10.57;6.82;;;;;;;16.47;100.00;92977.44;5028015;28;20085;-77
2022/08/19 04:23:54;;;;;;;9.80;6.63;;;;;;;16.81;100.00;93025.59;5028497;28;20045;-76
2022/08/19 04:26:25;;;;;;;10.68;6.88;;;;;;;16.83;100.00;93026.91;5032366;28;20463;-77
2022/08/19 04:28:54;;;;;;;8.48;6.43;;;;;;;16.90;100.00;93024.06;5047673;28;20107;-76
2022/08/19 04:31:25;;;;;;;9.45;7.15;;;;;;;16.95;100.00;93025.91;5048901;28;20107;-77
2022/08/19 04:33:52;;;;;;;13.73;8.32;;;;;;;16.95;100.00;93026.66;5048952;28;20413;-76
2022/08/19 04:36:21;;;;;;;14.15;7.85;;;;;;;16.93;100.00;93020.97;5049323;28;20045;-76
2022/08/19 04:38:48;;;;;;;17.58;7.47;;;;;;;17.05;100.00;93022.59;5049334;28;20045;-78
2022/08/19 04:44:02;;;;;;;12.32;7.35;;;;;;;17.13;100.00;93011.72;5046242;28;20051;-79
2022/08/19 04:46:30;;;;;;;11.80;7.88;;;;;;;17.16;100.00;93019.00;5049113;28;20397;-77
2022/08/19 04:48:57;;;;;;;9.63;7.10;;;;;;;17.19;100.00;93018.50;5049397;28;20051;-77
2022/08/19 04:51:24;;;;;;;10.35;6.32;;;;;;;17.21;100.00;93018.22;5048688;28;20068;-77
2022/08/19 04:53:52;;;;;;;10.02;7.65;;;;;;;17.28;100.00;93021.38;5035756;28;20099;-77
2022/08/19 04:56:22;;;;;;;10.93;6.65;;;;;;;17.15;100.00;92994.09;5045274;28;20041;-77
2022/08/19 04:58:54;;;;;;;8.43;6.53;;;;;;;17.31;100.00;93007.09;5039449;28;20063;-78
2022/08/19 05:01:36;;;;;;;8.45;6.70;;;;;;;17.03;100.00;92954.63;5038449;28;20056;-78
2022/08/19 05:04:04;;;;;;;8.60;6.93;;;;;;;17.56;100.00;93024.56;5045621;28;20691;-80
2022/08/19 05:06:33;;;;;;;7.97;5.97;;;;;;;17.55;100.00;93011.81;5049083;28;20127;-78
2022/08/19 05:09:01;;;;;;;10.63;6.20;;;;;;;17.62;100.00;93005.34;5048813;28;20045;-75
2022/08/19 05:11:29;;;;;;;8.38;6.22;;;;;;;17.66;100.00;93010.00;5048314;28;20096;-76
2022/08/19 05:13:57;;;;;;;9.25;6.80;;;;;;;17.85;100.00;93028.47;5047960;28;20041;-76
2022/08/19 05:16:25;;;;;;;10.07;6.10;;;;;;;17.96;100.00;93024.06;5032592;28;20071;-76
2022/08/19 05:24:33;;;;;;;10.23;7.70;;;;;;;18.16;100.00;93028.50;5041492;28;20074;-78
2022/08/19 05:27:02;;;;;;;13.27;7.50;;;;;;;18.19;100.00;93016.78;5048781;28;20164;-77
2022/08/19 05:29:31;;;;;;;10.88;7.30;;;;;;;18.33;100.00;93028.19;5048824;28;20136;-78
2022/08/19 05:31:58;;;;;;;10.15;8.35;;;;;;;18.42;100.00;93034.44;5050688;28;20456;-77
2022/08/19 05:34:27;;;;;;;9.75;7.63;;;;;;;18.37;100.00;93011.03;5052645;28;20122;-77
2022/08/19 05:36:56;;;;;;;12.27;6.97;;;;;;;18.51;100.00;93024.28;5052244;28;20052;-77
2022/08/19 05:39:26;;;;;;;10.48;7.38;;;;;;;18.61;100.00;93025.31;5052573;28;20084;-77
2022/08/19 05:41:56;;;;;;;11.48;6.57;;;;;;;18.81;100.00;93029.66;5052492;28;20127;-77
2022/08/19 05:44:24;;;;;;;9.50;6.82;;;;;;;18.95;100.00;93027.28;5052674;28;20052;-77
2022/08/19 05:46:53;;;;;;;10.02;7.55;;;;;;;19.14;99.77;93026.72;5052443;28;20411;-77
2022/08/19 05:49:22;;;;;;;11.57;7.75;;;;;;;19.07;98.80;93006.19;5052444;28;20088;-77
2022/08/19 05:51:51;;;;;;;10.15;7.57;;;;;;;19.33;100.00;93026.88;5052382;28;20492;-78
2022/08/19 05:54:18;;;;;;;10.93;6.57;;;;;;;19.52;97.62;93024.44;5049393;28;20050;-78
2022/08/19 05:56:47;;;;;;;11.60;8.07;;;;;;;19.58;99.49;93005.09;5035910;28;20041;-78
2022/08/19 05:59:15;;;;;;;9.07;6.97;;;;;;;19.80;98.19;93021.41;5052454;28;20083;-79
2022/08/19 06:01:43;;;;;;;8.68;6.78;;;;;;;19.97;96.79;93032.25;5052153;28;20053;-78
2022/08/19 06:04:10;;;;;;;10.85;6.55;;;;;;;20.13;93.97;93024.28;5039747;28;20048;-82
2022/08/19 06:06:37;;;;;;;11.63;6.57;;;;;;;20.38;92.58;93020.69;5048260;28;20451;-80
2022/08/19 06:09:07;;;;;;;9.75;6.13;;;;;;;20.55;90.52;93019.50;5046879;28;20060;-82
2022/08/19 06:11:39;;;;;;;7.47;5.32;;;;;;;20.86;88.56;93027.00;5043309;28;20053;-82
2022/08/19 06:14:08;;;;;;;8.07;5.32;;;;;;;21.08;86.02;93018.69;5046883;28;20045;-83
2022/08/19 06:16:38;;;;;;;9.80;5.90;;;;;;;21.44;84.14;93027.88;5052062;28;20103;-79
2022/08/19 06:19:09;;;;;;;10.82;5.15;;;;;;;21.65;83.04;93008.53;5051673;28;20045;-82
2022/08/19 06:21:38;;;;;;;11.60;6.10;;;;;;;22.04;80.60;93017.91;5047066;28;20563;-82
2022/08/19 06:24:09;;;;;;;10.77;5.97;;;;;;;22.01;78.37;93014.03;5051394;28;20036;-83
2022/08/19 06:26:37;;;;;;;9.10;5.70;;;;;;;22.31;78.28;93008.56;5051682;28;20052;-82
2022/08/19 06:29:05;;;;;;;10.23;5.43;;;;;;;22.79;75.34;93020.56;5051561;28;20049;-82
2022/08/19 06:31:34;;;;;;;8.38;5.28;;;;;;;23.14;72.56;93017.53;5052148;28;20049;-82
2022/08/19 06:34:02;;;;;;;8.35;4.72;;;;;;;23.18;70.35;92997.53;5047091;28;20167;-82
2022/08/19 06:36:33;;;;;;;7.10;5.05;;;;;;;23.38;68.75;93019.19;5049672;28;20592;-83
2022/08/19 06:39:01;;;;;;;7.32;5.57;;;;;;;23.31;68.99;93016.16;5051535;28;20382;-82
2022/08/19 06:41:30;;;;;;;6.85;4.72;;;;;;;23.43;68.76;93013.06;5051340;28;20489;-83
2022/08/19 06:43:58;;;;;;;7.78;4.53;;;;;;;23.87;69.36;93023.88;5050880;28;20159;-82
2022/08/19 06:46:26;;;;;;;7.28;5.13;;;;;;;24.22;66.97;93015.50;5050966;28;20060;-82
2022/08/19 06:48:54;;;;;;;7.47;5.15;;;;;;;24.54;64.19;93024.16;5051713;28;20112;-83
2022/08/19 06:51:22;;;;;;;6.68;4.90;;;;;;;24.75;63.17;93011.25;5042594;28;20049;-82
2022/08/19 06:53:54;;;;;;;6.10;4.15;;;;;;;25.13;61.44;93019.75;5036710;28;20056;-83
2022/08/19 06:56:30;;;;;;;5.47;4.30;;;;;;;25.45;58.78;93023.03;5041859;28;20049;-83
2022/08/19 06:58:59;;;;;;;4.90;3.85;;;;;;;25.68;56.45;93015.81;5033409;28;20081;-83
2022/08/19 07:01:27;;;;;;;8.43;4.22;;;;;;;25.83;56.91;93022.47;5039708;28;20453;-82
2022/08/19 07:03:54;;;;;;;7.60;4.20;;;;;;;26.06;57.00;93026.78;5030889;28;20041;-83
2022/08/19 07:06:21;;;;;;;5.30;3.55;;;;;;;26.42;57.06;93028.28;5031229;28;20049;-83
2022/08/19 07:08:50;;;;;;;6.47;4.32;;;;;;;26.72;55.78;93017.81;5030205;28;20053;-82
2022/08/19 07:11:19;;;;;;;11.93;4.07;;;;;;;27.06;53.24;93024.06;5035611;28;20540;-84
2022/08/19 07:13:56;;;;;;;5.90;4.18;;;;;;;27.15;53.02;92987.09;5029871;28;20124;-83
2022/08/19 07:16:27;;;;;;;7.05;4.38;;;;;;;27.60;52.30;93030.56;5030485;28;20045;-83
2022/08/19 07:18:55;;;;;;;7.05;4.43;;;;;;;27.83;50.45;93034.75;5034490;28;20045;-83
2022/08/19 07:21:26;;;;;;;8.07;4.07;;;;;;;27.20;47.01;93031.72;5037394;28;20079;-83
2022/08/19 07:23:53;;;;;;;7.45;3.70;;;;;;;26.81;49.63;92994.06;5051454;28;20060;-83
2022/08/19 07:26:23;;;;;;;8.00;3.67;;;;;;;27.37;51.08;93024.81;5050467;28;20048;-82
2022/08/19 07:28:50;;;;;;;7.38;4.57;;;;;;;27.76;50.50;93016.78;5050655;28;20143;-82
2022/08/19 07:31:20;;;;;;;7.03;4.25;;;;;;;27.79;48.16;93002.19;5050604;28;20098;-82
2022/08/19 07:33:50;;;;;;;11.35;4.10;;;;;;;28.03;48.16;93017.34;5043665;28;20044;-82
2022/08/19 07:36:20;;;;;;;8.13;3.75;;;;;;;27.54;47.21;93012.59;5048608;28;20060;-83
2022/08/19 07:38:48;;;;;;;8.63;5.40;;;;;;;27.58;47.13;93013.50;5050404;28;20409;-83
2022/08/19 07:41:19;;;;;;;9.43;3.95;;;;;;;27.14;47.80;93013.78;5050542;28;20053;-84
2022/08/19 07:43:46;;;;;;;8.50;3.97;;;;;;;27.25;48.55;92988.56;5050174;28;20041;-83
2022/08/19 07:46:13;;;;;;;7.60;4.68;;;;;;;27.66;49.82;93012.69;5049949;28;20049;-82
2022/08/19 07:48:40;;;;;;;11.93;4.60;;;;;;;28.06;49.11;93021.22;5050091;28;20446;-83
2022/08/19 07:51:11;;;;;;;9.40;3.85;;;;;;;28.31;46.11;93016.03;5049970;28;20053;-83
2022/08/19 07:53:38;;;;;;;6.38;3.28;;;;;;;28.76;45.81;93023.16;5050104;28;20037;-82
2022/08/19 07:56:06;;;;;;;5.88;3.08;;;;;;;28.82;44.91;93007.84;5048843;28;20045;-82
2022/08/19 07:58:35;;;;;;;5.78;3.58;;;;;;;29.10;43.29;93031.00;5049763;28;20122;-83
2022/08/19 08:01:02;;;;;;;10.15;3.65;;;;;;;29.19;44.75;93005.22;5038304;28;20083;-84
2022/08/19 08:09:12;;;;;;;8.93;3.65;;;;;;;29.49;43.26;93017.44;5050195;28;20799;-82
2022/08/19 08:11:39;;;;;;;4.38;3.70;;;;;;;29.92;42.62;93020.50;5050152;28;20479;-82
2022/08/19 08:14:06;;;;;;;12.23;5.18;;;;;;;30.30;43.22;93017.72;5050332;28;20052;-82
2022/08/19 08:16:36;;;;;;;9.77;4.50;;;;;;;30.43;42.44;92995.34;5050313;28;20134;-82
2022/08/19 08:19:05;;;;;;;10.73;4.25;;;;;;;30.71;40.92;93010.41;5049886;28;20049;-82
2022/08/19 08:21:33;;;;;;;9.20;4.15;;;;;;;31.04;41.90;93013.81;5050097;28;20135;-82
2022/08/19 08:24:00;;;;;;;6.40;3.47;;;;;;;30.77;39.77;93011.69;5049843;28;20041;-83
2022/08/19 08:26:27;;;;;;;6.13;3.25;;;;;;;31.11;40.77;92998.06;5049657;28;20053;-81
2022/08/19 08:28:54;;;;;;;6.30;3.15;;;;;;;31.48;40.49;93012.13;5049397;28;20102;-82
2022/08/19 08:31:21;;;;;;;4.30;2.95;;;;;;;31.53;40.27;92994.06;5049842;28;20110;-82
2022/08/19 08:33:48;;;;;;;4.85;3.00;;;;;;;31.88;40.58;93000.44;5049668;28;20130;-81
2022/08/19 08:36:15;;;;;;;5.95;3.60;;;;;;;31.89;38.46;93007.28;5049851;28;20052;-83
2022/08/19 08:38:46;;;;;;;5.07;3.13;;;;;;;32.07;39.82;92993.56;5049752;28;20044;-83
2022/08/19 08:41:22;;;;;;;7.70;3.67;;;;;;;32.36;38.03;93007.38;5049841;28;20140;-82
2022/08/19 08:43:54;;;;;;;6.55;3.70;;;;;;;32.59;38.06;93009.28;5049862;28;20052;-82
2022/08/19 08:46:27;;;;;;;7.53;4.10;;;;;;;32.77;38.49;93002.34;5049117;28;20136;-81
2022/08/19 08:48:58;;;;;;;6.57;3.83;;;;;;;32.95;37.42;93001.84;5049494;28;20049;-82
2022/08/19 08:51:32;;;;;;;6.45;4.15;;;;;;;33.11;38.82;93007.09;5049493;28;20791;-81
2022/08/19 08:54:06;;;;;;;9.93;3.75;;;;;;;33.29;37.67;92990.59;5049556;28;20059;-83
2022/08/19 08:56:33;;;;;;;7.28;3.75;;;;;;;33.42;36.71;93001.78;5049593;28;20053;-84
2022/08/19 08:59:08;;;;;;;10.48;3.70;;;;;;;33.28;36.34;92997.78;5049699;28;20495;-84
2022/08/19 09:01:35;;;;;;;5.47;3.67;;;;;;;32.71;35.81;92995.06;5049532;28;20052;-84
2022/08/19 09:04:04;;;;;;;7.22;3.30;;;;;;;32.83;35.25;92978.91;5049484;28;20043;-84
2022/08/19 09:06:42;;;;;;;15.13;3.95;;;;;;;32.43;36.92;92986.25;5050889;28;20114;-84
2022/08/19 09:09:18;;;;;;;4.38;3.10;;;;;;;32.66;36.73;92988.91;5053829;28;20052;-85
2022/08/19 09:11:56;;;;;;;6.30;3.13;;;;;;;32.76;37.42;92973.47;5053288;28;20131;-84
2022/08/19 09:14:35;;;;;;;4.70;3.28;;;;;;;33.28;37.01;92986.41;5053224;28;20516;-83
2022/08/19 09:17:07;;;;;;;4.97;3.20;;;;;;;33.59;37.12;92979.19;5047773;28;20498;-82
2022/08/19 09:19:35;;;;;;;3.75;2.95;;;;;;;33.81;35.18;92985.56;5053643;28;20128;-83
2022/08/19 09:22:01;;;;;;;4.25;2.90;;;;;;;34.11;35.64;92979.41;5052281;28;20501;-84
2022/08/19 09:24:29;;;;;;;5.55;3.20;;;;;;;34.48;35.23;92977.84;5033090;28;20198;-82
2022/08/19 09:26:56;;;;;;;8.38;3.40;;;;;;;34.44;33.96;92937.06;5027688;28;20046;-85
2022/08/19 09:29:24;;;;;;;5.18;3.10;;;;;;;35.09;33.89;92973.34;5024317;28;20516;-84
2022/08/19 09:31:57;;;;;;;3.88;2.90;;;;;;;35.08;33.52;92945.88;5025860;28;20129;-84
2022/08/19 09:34:29;;;;;;;4.28;2.58;;;;;;;35.07;32.69;92963.06;5027916;28;20153;-84
2022/08/19 09:36:58;;;;;;;3.38;2.60;;;;;;;35.37;33.09;92956.00;5031596;28;20089;-84
2022/08/19 09:39:26;;;;;;;4.15;2.67;;;;;;;35.51;32.72;92957.97;5029659;28;20457;-85
2022/08/19 09:41:55;;;;;;;3.72;2.72;;;;;;;35.63;30.41;92960.31;5025566;28;20058;-85
2022/08/19 09:44:33;;;;;;;5.75;2.83;;;;;;;35.91;31.88;92953.53;5021147;28;20053;-85
2022/08/19 09:47:00;;;;;;;4.95;2.55;;;;;;;36.08;31.15;92956.63;5036121;28;20053;-86
2022/08/19 09:49:32;;;;;;;4.15;2.95;;;;;;;35.69;30.30;92918.00;5044954;28;20052;-88
2022/08/19 09:52:00;;;;;;;5.63;2.58;;;;;;;36.14;31.51;92941.78;5040314;28;20597;-86
2022/08/19 09:54:28;;;;;;;3.25;2.45;;;;;;;36.29;31.00;92953.28;5049834;28;20068;-85
2022/08/19 09:57:00;;;;;;;3.67;2.22;;;;;;;36.38;29.00;92952.91;5052651;28;20492;-85
2022/08/19 09:59:27;;;;;;;3.67;2.50;;;;;;;35.71;27.98;92953.88;5051445;28;20057;-85
2022/08/19 10:01:57;;;;;;;3.92;2.47;;;;;;;35.77;29.33;92926.78;5052754;28;20051;-86
2022/08/19 10:05:47;;;;;;;4.75;2.70;;;;;;;35.46;29.05;92940.41;5052175;28;20045;-85
2022/08/19 10:07:11;;;;;;;2.92;2.35;;;;;;;35.78;31.25;92931.75;5052337;28;20103;-82
2022/08/19 10:09:38;;;;;;;5.88;2.42;;;;;;;36.02;30.57;92932.19;5047053;28;20096;-82
2022/08/19 10:12:06;;;;;;;5.38;2.58;;;;;;;36.25;30.35;92933.78;5050072;28;20057;-81
2022/08/19 10:14:33;;;;;;;4.57;2.90;;;;;;;36.43;30.08;92933.78;5052224;28;20049;-82
2022/08/19 10:17:02;;;;;;;4.05;2.78;;;;;;;36.54;29.12;92925.75;5051948;28;20053;-83
2022/08/19 10:19:35;;;;;;;6.00;2.72;;;;;;;35.49;28.05;92914.84;5051332;28;20883;-84
2022/08/19 10:22:05;;;;;;;4.32;2.80;;;;;;;35.74;30.34;92924.88;5052248;28;20135;-83
2022/08/19 10:24:33;;;;;;;5.15;2.80;;;;;;;36.07;28.75;92925.69;5052261;28;20453;-82
2022/08/19 10:27:05;;;;;;;4.00;2.85;;;;;;;35.20;28.66;92926.16;5051722;28;20145;-84
2022/08/19 10:29:35;;;;;;;3.70;2.92;;;;;;;34.28;30.30;92905.31;5051642;28;20048;-85
2022/08/19 10:32:04;;;;;;;4.68;3.25;;;;;;;34.41;30.46;92918.34;5051800;28;20088;-84
2022/08/19 10:34:35;;;;;;;4.35;3.03;;;;;;;32.46;31.45;92919.09;5051618;28;20049;-87
2022/08/19 10:37:02;;;;;;;3.95;2.90;;;;;;;32.29;32.05;92904.34;5051919;28;20059;-85
2022/08/19 10:39:30;;;;;;;4.93;2.90;;;;;;;32.78;32.18;92918.03;5051820;28;20049;-83
2022/08/19 10:41:57;;;;;;;4.47;2.70;;;;;;;32.78;31.91;92918.78;5051889;28;20107;-86
2022/08/19 10:44:24;;;;;;;5.25;3.10;;;;;;;33.45;30.92;92913.97;5047271;28;20074;-86
2022/08/19 10:46:52;;;;;;;6.45;2.85;;;;;;;34.13;32.00;92901.78;5050095;28;20160;-84
2022/08/19 10:49:23;;;;;;;4.50;3.20;;;;;;;34.60;29.76;92901.38;5051878;28;20068;-84
2022/08/19 10:57:33;;;;;;;5.67;2.93;;;;;;;34.66;30.70;92902.56;4977898;28;20086;-84
2022/08/19 11:00:00;;;;;;;5.43;3.35;;;;;;;34.57;27.74;92912.78;5012090;28;20302;-86
2022/08/19 11:02:32;;;;;;;6.10;3.53;;;;;;;34.38;27.13;92885.97;5050929;28;20501;-87
2022/08/19 11:05:01;;;;;;;4.85;2.65;;;;;;;34.22;27.44;92904.13;5031996;28;20053;-87
2022/08/19 11:07:28;;;;;;;5.90;3.58;;;;;;;34.73;28.46;92883.19;5030890;28;20057;-85
2022/08/19 11:09:55;;;;;;;5.78;2.53;;;;;;;34.51;25.86;92907.00;5030967;28;20053;-91
2022/08/19 11:12:21;;;;;;;6.47;3.08;;;;;;;34.60;25.73;92901.38;5030884;28;20057;-89
2022/08/19 11:14:49;;;;;;;4.75;2.63;;;;;;;34.37;25.99;92902.34;5030782;28;20485;-86
2022/08/19 11:17:16;;;;;;;4.40;2.60;;;;;;;34.47;26.60;92890.25;5041533;28;20051;-86
2022/08/19 11:19:48;;;;;;;4.88;2.40;;;;;;;33.80;26.67;92887.34;5050395;28;20052;-87
2022/08/19 11:22:15;;;;;;;5.63;3.00;;;;;;;33.83;27.39;92895.38;5050994;28;20049;-85
2022/08/19 11:24:42;;;;;;;6.38;2.83;;;;;;;34.28;26.40;92893.91;5050647;28;20084;-87
2022/08/19 11:27:11;;;;;;;5.43;3.25;;;;;;;34.81;27.24;92878.66;5047805;28;20072;-88
2022/08/19 11:29:39;;;;;;;4.85;2.70;;;;;;;34.70;27.14;92890.03;5050777;28;20094;-89
2022/08/19 11:32:09;;;;;;;4.68;2.72;;;;;;;35.17;27.13;92868.19;5050463;28;20570;-88
2022/08/19 11:34:37;;;;;;;4.60;2.65;;;;;;;34.55;27.14;92888.38;5050755;28;20562;-87
2022/08/19 11:37:08;;;;;;;5.32;2.60;;;;;;;34.06;27.37;92867.06;5050205;28;20064;-87
2022/08/19 11:39:36;;;;;;;4.30;2.45;;;;;;;34.15;28.20;92851.53;5048120;28;20056;-88
2022/08/19 11:42:54;;;;;;;7.78;3.45;;;;;;;33.75;28.08;92834.41;5050057;28;20144;-87
2022/08/19 11:44:51;;;;;;;4.88;2.78;;;;;;;34.61;27.94;92876.28;5043857;28;20049;-87
2022/08/19 11:47:20;;;;;;;5.57;3.03;;;;;;;34.96;27.28;92872.25;5046271;28;20056;-87
2022/08/19 11:49:46;;;;;;;5.68;2.97;;;;;;;35.18;27.61;92867.06;5050003;28;20080;-83
2022/08/19 11:52:14;;;;;;;5.78;3.08;;;;;;;35.15;26.65;92862.47;5050185;28;20049;-87
2022/08/19 11:54:41;;;;;;;4.07;2.60;;;;;;;35.54;27.53;92863.75;5050233;28;20057;-84
2022/08/19 11:57:08;;;;;;;3.65;2.80;;;;;;;35.94;26.79;92864.59;5049915;28;20496;-87
2022/08/19 11:59:35;;;;;;;4.22;2.60;;;;;;;35.38;27.08;92859.50;5046576;28;20057;-86
2022/08/19 12:02:01;;;;;;;5.20;2.83;;;;;;;35.77;27.25;92854.66;5043374;28;20068;-82